Time;durP1;ratioP1;P1;durP2;ratioP2;P2;SDS_P1;SDS_P2;PMS_P1;PMS_P2;Temp;Humidity;BMP_temperature;BMP_pressure;BME280_temperature;BME280_humidity;BME280_pressure;Samples;Min_cycle;Max_cycle;Signal;HPM_P1;HPM_P2
2022/09/06 00:02:25;;;;;;;3.80;0.60;;;;;;;14.57;59.23;101047.70;105777;1273;25242;-63
2022/09/06 00:04:57;;;;;;;7.00;0.60;;;;;;;14.56;59.28;101048.66;106013;1273;25262;-63
2022/09/06 00:07:28;;;;;;;2.90;0.60;;;;;;;14.55;59.24;101049.20;106131;1273;22546;-63
2022/09/06 00:10:00;;;;;;;7.40;0.90;;;;;;;14.54;59.27;101051.13;105679;1273;26508;-65
2022/09/06 00:12:31;;;;;;;3.60;0.50;;;;;;;14.52;59.16;101052.48;105733;1273;22553;-63
2022/09/06 00:15:03;;;;;;;6.70;0.70;;;;;;;14.50;58.86;101055.10;105853;1273;22848;-63
2022/09/06 00:17:34;;;;;;;5.70;0.70;;;;;;;14.48;59.07;101047.98;105855;1273;22989;-63
2022/09/06 00:20:08;;;;;;;5.10;0.60;;;;;;;14.47;59.12;101042.69;105773;1273;22557;-64
2022/09/06 00:22:40;;;;;;;7.00;0.60;;;;;;;14.44;59.03;101038.98;105785;1273;23018;-64
2022/09/06 00:25:12;;;;;;;9.80;0.70;;;;;;;14.41;59.16;101041.32;105686;1273;22551;-63
2022/09/06 00:27:43;;;;;;;5.10;0.70;;;;;;;14.39;58.93;101035.05;105675;1273;25469;-63
2022/09/06 00:30:16;;;;;;;4.80;0.60;;;;;;;14.35;59.06;101034.28;105638;1273;22531;-64
2022/09/06 00:32:47;;;;;;;6.10;0.70;;;;;;;14.31;59.09;101034.02;105941;1273;22554;-64
2022/09/06 00:35:19;;;;;;;4.20;0.90;;;;;;;14.27;59.01;101027.58;105706;1273;22563;-63
2022/09/06 00:37:52;;;;;;;6.40;1.10;;;;;;;14.24;59.18;101026.70;105761;1273;22569;-63
2022/09/06 00:40:23;;;;;;;4.10;0.80;;;;;;;14.21;59.45;101030.48;105800;1273;22572;-63
2022/09/06 00:42:55;;;;;;;2.70;0.50;;;;;;;14.19;59.27;101028.76;105699;1273;22587;-63
2022/09/06 00:45:28;;;;;;;4.70;0.80;;;;;;;14.15;59.01;101027.27;105746;1273;23934;-63
2022/09/06 00:48:01;;;;;;;3.80;0.60;;;;;;;14.09;58.93;101029.15;105745;1273;25351;-63
2022/09/06 00:50:32;;;;;;;11.20;0.90;;;;;;;14.04;59.02;101030.05;105758;1273;23161;-64
2022/09/06 00:53:04;;;;;;;2.90;0.50;;;;;;;14.00;59.01;101026.71;105760;1273;25030;-64
2022/09/06 00:55:36;;;;;;;5.60;1.00;;;;;;;13.95;59.13;101026.20;105758;1273;22564;-64
2022/09/06 00:58:09;;;;;;;4.40;0.50;;;;;;;13.91;59.22;101027.24;106074;1273;22739;-64
2022/09/06 01:00:41;;;;;;;5.60;0.60;;;;;;;13.86;59.24;101029.82;105981;1273;25383;-63
2022/09/06 01:03:13;;;;;;;4.40;0.60;;;;;;;13.81;59.23;101030.24;105694;1273;24363;-63
2022/09/06 01:05:58;;;;;;;4.90;0.70;;;;;;;13.77;59.53;101022.83;105881;1273;22559;-63
2022/09/06 01:08:38;;;;;;;6.50;0.70;;;;;;;13.73;59.61;101025.39;105623;1273;22975;-63
2022/09/06 01:11:33;;;;;;;4.40;0.60;;;;;;;13.67;59.48;101024.48;105671;1273;25332;-63
2022/09/06 01:14:22;;;;;;;7.00;0.60;;;;;;;13.62;59.56;101022.69;105159;1281;22541;-63
2022/09/06 01:17:04;;;;;;;5.20;0.70;;;;;;;13.57;59.82;101021.67;105224;1281;22712;-66
2022/09/06 01:20:08;;;;;;;6.40;1.00;;;;;;;13.53;59.92;101018.89;105352;1281;25050;-64
2022/09/06 01:23:03;;;;;;;4.50;0.60;;;;;;;13.51;60.09;101022.79;105259;1281;24538;-63
2022/09/06 01:25:54;;;;;;;7.20;0.60;;;;;;;13.49;59.99;101020.09;105321;1281;25449;-63
2022/09/06 01:28:32;;;;;;;5.50;0.60;;;;;;;13.45;59.86;101023.08;105345;1281;24253;-62
2022/09/06 01:31:11;;;;;;;4.70;0.70;;;;;;;13.44;60.31;101019.63;105313;1281;22735;-63
2022/09/06 01:33:50;;;;;;;5.50;0.60;;;;;;;13.43;60.12;101018.58;105341;1281;25546;-63
2022/09/06 01:36:27;;;;;;;5.50;0.90;;;;;;;13.42;60.37;101020.05;105160;1281;24344;-62
2022/09/06 01:38:59;;;;;;;6.50;0.80;;;;;;;13.42;60.29;101021.27;105197;1281;25417;-63
2022/09/06 01:41:32;;;;;;;2.10;0.50;;;;;;;13.43;60.53;101018.17;105322;1281;22557;-63
2022/09/06 01:44:04;;;;;;;3.70;0.70;;;;;;;13.44;60.56;101019.79;105217;1281;22608;-62
2022/09/06 01:46:42;;;;;;;4.10;0.60;;;;;;;13.45;60.69;101026.70;105274;1281;25518;-62
2022/09/06 01:49:26;;;;;;;3.20;0.60;;;;;;;13.44;60.54;101030.45;105458;1281;25441;-64
2022/09/06 01:52:09;;;;;;;2.50;0.70;;;;;;;13.44;60.75;101031.58;105233;1275;22528;-63
2022/09/06 01:54:59;;;;;;;4.00;0.90;;;;;;;13.43;60.83;101026.59;105602;1273;24043;-63
2022/09/06 01:57:50;;;;;;;3.00;0.60;;;;;;;13.42;61.12;101031.18;105825;1273;25306;-63
2022/09/06 02:00:23;;;;;;;3.40;0.70;;;;;;;13.40;61.14;101036.02;105583;1273;22604;-62
2022/09/06 02:03:07;;;;;;;4.00;0.70;;;;;;;13.40;61.19;101035.30;105771;1273;25548;-63
2022/09/06 02:05:43;;;;;;;5.20;0.70;;;;;;;13.40;61.43;101035.79;108331;1273;24485;-63
2022/09/06 02:08:18;;;;;;;3.70;0.80;;;;;;;13.41;61.45;101034.05;105598;1273;24448;-63
2022/09/06 02:10:54;;;;;;;6.70;0.70;;;;;;;13.41;61.79;101033.59;105771;1274;22535;-64
2022/09/06 02:13:30;;;;;;;3.90;0.70;;;;;;;13.40;61.72;101032.88;105648;1275;24246;-64
2022/09/06 02:16:05;;;;;;;4.30;0.70;;;;;;;13.39;61.80;101030.45;105615;1273;23570;-62
2022/09/06 02:18:42;;;;;;;7.50;0.70;;;;;;;13.39;61.70;101026.47;105642;1273;25563;-63
2022/09/06 02:21:19;;;;;;;4.20;0.70;;;;;;;13.38;61.99;101019.22;105631;1273;22534;-62
2022/09/06 02:23:53;;;;;;;7.50;0.80;;;;;;;13.37;61.67;101015.02;105553;1275;24319;-64
2022/09/06 02:26:28;;;;;;;4.30;0.80;;;;;;;13.35;61.73;101010.48;105605;1275;26532;-62
2022/09/06 02:28:59;;;;;;;4.00;0.70;;;;;;;13.33;61.77;101011.63;105556;1274;22614;-62
2022/09/06 02:31:35;;;;;;;6.60;0.70;;;;;;;13.31;61.77;101007.49;105520;1275;25290;-63
2022/09/06 02:34:08;;;;;;;4.20;0.70;;;;;;;13.28;61.86;101009.33;105549;1276;22563;-63
2022/09/06 02:36:40;;;;;;;2.90;0.70;;;;;;;13.25;61.82;101009.56;105519;1275;22542;-63
2022/09/06 02:39:11;;;;;;;5.60;0.90;;;;;;;13.20;62.22;101009.61;105615;1273;22718;-63
2022/09/06 02:41:46;;;;;;;5.40;0.90;;;;;;;13.15;62.06;101006.66;105543;1273;22539;-68
2022/09/06 02:44:18;;;;;;;11.50;0.90;;;;;;;13.09;62.28;101006.53;105485;1275;22550;-65
2022/09/06 02:46:50;;;;;;;3.60;0.80;;;;;;;13.01;62.45;101012.30;105617;1275;22532;-63
2022/09/06 02:49:22;;;;;;;3.60;0.70;;;;;;;12.93;62.63;101015.27;105497;1276;24281;-63
2022/09/06 02:51:54;;;;;;;3.30;0.60;;;;;;;12.84;62.71;101016.73;105748;1273;25373;-63
2022/09/06 02:54:26;;;;;;;9.00;0.90;;;;;;;12.78;62.79;101015.55;105700;1273;24121;-63
2022/09/06 02:56:58;;;;;;;6.80;0.80;;;;;;;12.73;62.94;101012.59;105737;1273;23044;-63
2022/09/06 02:59:30;;;;;;;3.00;0.60;;;;;;;12.70;63.07;101005.95;105778;1273;22531;-64
2022/09/06 03:02:01;;;;;;;7.20;0.80;;;;;;;12.67;63.06;100999.77;105561;1273;22572;-63
2022/09/06 03:04:33;;;;;;;7.10;1.10;;;;;;;12.62;63.31;101000.80;105692;1273;25536;-64
2022/09/06 03:07:04;;;;;;;6.00;0.70;;;;;;;12.56;63.34;100997.73;105670;1273;22563;-63
2022/09/06 03:09:35;;;;;;;7.20;1.00;;;;;;;12.48;63.53;101000.20;105781;1273;22554;-64
2022/09/06 03:12:07;;;;;;;7.80;0.80;;;;;;;12.39;63.84;100997.95;105720;1273;24273;-63
2022/09/06 03:14:40;;;;;;;3.10;0.70;;;;;;;12.32;64.02;101002.46;105532;1274;22537;-62
2022/09/06 03:17:12;;;;;;;6.70;1.00;;;;;;;12.25;64.06;100999.50;105663;1273;24432;-63
2022/09/06 03:19:43;;;;;;;9.30;0.80;;;;;;;12.18;64.20;100998.78;105622;1273;22559;-64
2022/09/06 03:22:15;;;;;;;6.60;0.90;;;;;;;12.12;64.26;100994.35;105594;1273;22544;-64
2022/09/06 03:24:47;;;;;;;4.90;0.60;;;;;;;12.05;64.39;100993.16;105604;1273;25408;-64
2022/09/06 03:27:18;;;;;;;4.00;0.60;;;;;;;12.01;64.45;100995.40;105626;1273;25259;-62
2022/09/06 03:29:49;;;;;;;6.30;0.70;;;;;;;11.98;64.66;100999.31;105610;1274;25365;-63
2022/09/06 03:32:21;;;;;;;3.90;0.60;;;;;;;11.95;64.55;100997.45;105629;1273;24289;-62
2022/09/06 03:34:53;;;;;;;4.60;0.70;;;;;;;11.93;64.88;100993.88;105703;1273;26474;-62
2022/09/06 03:37:25;;;;;;;5.40;0.70;;;;;;;11.91;64.70;100997.83;105666;1273;24537;-63
2022/09/06 03:39:56;;;;;;;5.10;0.90;;;;;;;11.88;65.00;101001.02;105714;1273;22576;-62
2022/09/06 03:42:28;;;;;;;6.60;0.70;;;;;;;11.86;64.94;101001.98;105632;1273;26613;-64
2022/09/06 03:44:59;;;;;;;6.50;0.80;;;;;;;11.82;65.17;100998.45;105637;1273;22537;-63
2022/09/06 03:47:32;;;;;;;9.00;0.90;;;;;;;11.79;65.33;100997.40;105920;1273;26337;-63
2022/09/06 03:50:03;;;;;;;5.10;0.80;;;;;;;11.75;65.47;100996.16;105826;1273;24343;-62
2022/09/06 03:52:35;;;;;;;3.70;0.70;;;;;;;11.70;65.49;100994.79;105621;1273;22553;-62
2022/09/06 03:55:08;;;;;;;6.30;0.70;;;;;;;11.66;65.80;100993.36;105884;1273;22936;-62
2022/09/06 03:57:39;;;;;;;5.00;0.70;;;;;;;11.65;66.21;100991.89;105702;1273;22544;-63
2022/09/06 04:00:13;;;;;;;3.10;0.60;;;;;;;11.64;66.49;100990.80;105731;1273;24376;-63
2022/09/06 04:02:44;;;;;;;6.60;0.80;;;;;;;11.63;66.61;100987.57;105634;1273;22557;-64
2022/09/06 04:05:17;;;;;;;6.10;1.30;;;;;;;11.64;66.67;100986.31;105877;1273;25828;-63
2022/09/06 04:07:48;;;;;;;7.00;0.70;;;;;;;11.69;66.63;100991.37;105712;1273;24131;-63
2022/09/06 04:10:21;;;;;;;7.10;0.90;;;;;;;11.73;66.38;100990.50;105734;1273;23159;-62
2022/09/06 04:12:52;;;;;;;8.50;1.10;;;;;;;11.77;66.34;100990.41;105665;1273;24410;-63
2022/09/06 04:15:23;;;;;;;5.50;0.90;;;;;;;11.80;66.60;100983.44;105687;1273;22560;-62
2022/09/06 04:17:55;;;;;;;5.50;1.00;;;;;;;11.83;66.50;100982.28;105739;1273;22794;-63
2022/09/06 04:20:26;;;;;;;3.90;0.80;;;;;;;11.85;66.58;100981.12;105578;1273;25199;-62
2022/09/06 04:22:58;;;;;;;3.90;0.80;;;;;;;11.89;66.46;100982.17;105570;1273;22662;-62
2022/09/06 04:25:30;;;;;;;5.40;0.90;;;;;;;11.88;66.52;100986.73;105647;1273;22624;-63
2022/09/06 04:28:02;;;;;;;12.40;0.90;;;;;;;11.89;66.47;100987.73;105631;1273;22562;-63
2022/09/06 04:30:33;;;;;;;7.10;0.70;;;;;;;11.92;66.60;100988.96;105619;1273;25242;-63
2022/09/06 04:33:05;;;;;;;8.00;1.00;;;;;;;11.95;66.67;100990.66;105665;1273;23403;-63
2022/09/06 04:35:38;;;;;;;5.50;0.90;;;;;;;11.99;66.85;100989.05;105735;1273;25274;-62
2022/09/06 04:38:10;;;;;;;2.90;0.80;;;;;;;12.02;67.00;100993.20;105581;1273;22933;-62
2022/09/06 04:40:42;;;;;;;6.10;0.90;;;;;;;12.06;67.12;100996.05;105515;1274;23961;-62
2022/09/06 04:43:13;;;;;;;7.00;0.80;;;;;;;12.09;67.32;100995.50;105564;1274;22551;-63
2022/09/06 04:45:45;;;;;;;5.60;1.10;;;;;;;12.12;67.30;100994.20;105717;1273;25780;-63
2022/09/06 04:48:17;;;;;;;7.40;0.90;;;;;;;12.15;67.42;100988.69;105878;1273;24273;-63
2022/09/06 04:50:48;;;;;;;12.90;0.90;;;;;;;12.19;67.32;100986.48;105803;1273;25263;-63
2022/09/06 04:53:20;;;;;;;7.80;1.00;;;;;;;12.22;67.41;100984.73;105512;1274;23300;-62
2022/09/06 04:55:51;;;;;;;10.60;1.00;;;;;;;12.26;67.26;100982.52;105460;1274;22551;-62
2022/09/06 04:58:23;;;;;;;10.20;1.10;;;;;;;12.29;67.26;100980.20;105795;1273;25266;-64
2022/09/06 05:00:55;;;;;;;7.60;1.30;;;;;;;12.32;67.18;100979.21;105471;1274;23959;-63
2022/09/06 05:03:26;;;;;;;11.50;1.00;;;;;;;12.36;67.28;100968.91;105550;1274;22675;-63
2022/09/06 05:06:09;;;;;;;9.20;1.10;;;;;;;12.41;67.29;100970.39;105590;1273;22556;-63
2022/09/06 05:08:42;;;;;;;5.20;1.00;;;;;;;12.45;67.15;100976.36;105626;1274;22538;-63
2022/09/06 05:11:13;;;;;;;5.20;1.10;;;;;;;12.48;67.02;100971.23;105576;1274;25255;-63
2022/09/06 05:13:45;;;;;;;3.80;0.70;;;;;;;12.50;66.98;100971.88;107054;1274;22560;-64
2022/09/06 05:16:17;;;;;;;8.20;0.90;;;;;;;12.52;66.99;100976.64;105667;1273;22557;-64
2022/09/06 05:18:49;;;;;;;6.50;1.00;;;;;;;12.56;66.90;100984.55;105712;1275;24435;-64
2022/09/06 05:21:20;;;;;;;8.40;1.00;;;;;;;12.57;66.89;100996.25;106416;1273;22553;-63
2022/09/06 05:23:52;;;;;;;10.20;1.20;;;;;;;12.55;66.65;101003.79;105763;1275;22887;-67
2022/09/06 05:26:23;;;;;;;6.50;1.00;;;;;;;12.55;66.84;101002.27;105703;1274;22673;-64
2022/09/06 05:28:54;;;;;;;10.20;1.00;;;;;;;12.58;66.72;101003.32;105656;1273;22532;-63
2022/09/06 05:31:28;;;;;;;6.00;0.90;;;;;;;12.60;66.98;101005.38;105677;1274;22551;-64
2022/09/06 05:34:00;;;;;;;11.30;0.90;;;;;;;12.64;66.85;101003.36;105732;1273;22735;-64
2022/09/06 05:36:33;;;;;;;6.40;1.00;;;;;;;12.66;66.97;100996.75;105829;1274;22771;-64
2022/09/06 05:39:04;;;;;;;10.50;1.20;;;;;;;12.69;66.71;100998.71;105803;1274;23048;-64
2022/09/06 05:41:35;;;;;;;7.20;1.10;;;;;;;12.71;66.75;101004.20;105722;1274;27705;-64
2022/09/06 05:44:07;;;;;;;7.00;1.20;;;;;;;12.73;66.49;101007.92;105677;1275;22636;-63
2022/09/06 05:46:44;;;;;;;8.70;1.20;;;;;;;12.75;66.51;101013.86;105889;1275;25319;-65
2022/09/06 05:49:15;;;;;;;7.90;0.90;;;;;;;12.78;66.59;101016.23;105714;1275;25378;-64
2022/09/06 05:51:50;;;;;;;6.30;0.90;;;;;;;12.83;66.64;101013.78;105511;1274;24218;-64
2022/09/06 05:54:21;;;;;;;4.20;0.70;;;;;;;12.85;66.55;101013.39;105604;1272;23212;-64
2022/09/06 05:56:52;;;;;;;7.90;1.20;;;;;;;12.88;66.84;101007.80;105549;1274;22616;-65
2022/09/06 05:59:33;;;;;;;5.30;1.20;;;;;;;12.93;66.60;101004.23;105481;1275;25622;-65
2022/09/06 06:02:05;;;;;;;5.00;0.60;;;;;;;12.96;66.54;101000.42;105499;1274;24361;-65
2022/09/06 06:04:36;;;;;;;6.40;0.70;;;;;;;13.00;66.73;101005.20;105729;1274;22641;-65
2022/09/06 06:07:08;;;;;;;14.40;1.00;;;;;;;13.05;66.62;101012.14;105654;1275;22573;-64
2022/09/06 06:09:39;;;;;;;4.70;1.00;;;;;;;13.08;66.63;101007.08;101537;1275;5452536;-64
2022/09/06 06:12:11;;;;;;;6.90;1.00;;;;;;;13.11;66.67;101002.34;105595;1274;24324;-64
2022/09/06 06:14:43;;;;;;;3.50;0.70;;;;;;;13.15;66.75;101002.80;105751;1274;24232;-65
2022/09/06 06:17:15;;;;;;;3.60;0.60;;;;;;;13.19;66.64;101000.72;105784;1275;25170;-63
2022/09/06 06:19:46;;;;;;;7.50;1.20;;;;;;;13.24;66.46;100998.48;105890;1274;25465;-65
2022/09/06 06:22:18;;;;;;;7.80;1.00;;;;;;;13.29;66.40;100994.65;105559;1274;22565;-64
2022/09/06 06:24:49;;;;;;;5.90;0.90;;;;;;;13.33;66.27;101002.17;105577;1274;22554;-64
2022/09/06 06:27:21;;;;;;;5.90;0.90;;;;;;;13.38;66.09;101005.69;105650;1274;25269;-64
2022/09/06 06:29:53;;;;;;;7.50;0.90;;;;;;;13.45;66.00;101007.38;105541;1274;22587;-64
2022/09/06 06:32:25;;;;;;;6.80;0.90;;;;;;;13.53;65.93;101008.80;105790;1274;22654;-65
2022/09/06 06:34:57;;;;;;;5.70;0.80;;;;;;;13.61;65.61;101005.38;105615;1274;25262;-64
2022/09/06 06:37:28;;;;;;;5.90;0.80;;;;;;;13.70;65.61;101010.61;105856;1274;25401;-64
2022/09/06 06:40:00;;;;;;;3.80;0.80;;;;;;;13.80;65.55;101009.05;105557;1274;22541;-64
2022/09/06 06:42:32;;;;;;;4.80;0.80;;;;;;;13.89;65.45;101000.78;105632;1274;24346;-64
2022/09/06 06:45:03;;;;;;;4.60;0.70;;;;;;;13.97;65.09;100999.90;105674;1274;24362;-65
2022/09/06 06:47:35;;;;;;;7.30;1.30;;;;;;;14.05;65.41;101001.98;105737;1274;24517;-64
2022/09/06 06:50:07;;;;;;;6.10;0.90;;;;;;;14.14;65.19;101000.91;105588;1274;22833;-65
2022/09/06 06:52:39;;;;;;;6.70;0.80;;;;;;;14.22;64.78;101000.70;105912;1273;22535;-64
2022/09/06 06:55:11;;;;;;;3.70;0.90;;;;;;;14.31;64.87;101000.18;105813;1274;22542;-64
2022/09/06 06:57:43;;;;;;;5.90;1.00;;;;;;;14.38;64.80;101002.27;105871;1274;22538;-64
2022/09/06 07:00:15;;;;;;;6.30;1.00;;;;;;;14.44;64.59;101007.97;105626;1274;24302;-63
2022/09/06 07:02:47;;;;;;;10.10;1.00;;;;;;;14.50;64.46;101009.08;105843;1274;22554;-64
2022/09/06 07:05:18;;;;;;;9.20;1.10;;;;;;;14.54;64.27;101004.38;105795;1274;22988;-64
2022/09/06 07:07:49;;;;;;;6.40;1.00;;;;;;;14.58;64.37;101002.92;105661;1274;25511;-64
2022/09/06 07:10:21;;;;;;;7.90;0.90;;;;;;;14.64;64.35;101004.73;105851;1274;23926;-63
2022/09/06 07:12:53;;;;;;;5.50;0.90;;;;;;;14.68;64.34;101001.98;105582;1274;22545;-64
2022/09/06 07:15:24;;;;;;;5.60;1.00;;;;;;;14.73;64.18;101006.45;105751;1274;22650;-64
2022/09/06 07:17:58;;;;;;;6.70;0.90;;;;;;;14.78;64.14;101008.83;105694;1275;22675;-65
2022/09/06 07:20:29;;;;;;;9.40;1.00;;;;;;;14.82;63.98;101008.82;105943;1274;25319;-64
2022/09/06 07:23:05;;;;;;;7.70;1.30;;;;;;;14.86;64.01;101009.09;105643;1274;22544;-66
2022/09/06 07:25:37;;;;;;;6.50;1.20;;;;;;;14.92;63.93;101003.55;105732;1274;24238;-63
2022/09/06 07:28:09;;;;;;;9.30;1.10;;;;;;;14.95;63.71;101001.59;105642;1274;22572;-65
2022/09/06 07:30:43;;;;;;;5.20;0.90;;;;;;;14.99;63.83;101005.13;105753;1274;22569;-65
2022/09/06 07:33:16;;;;;;;4.40;0.90;;;;;;;15.03;63.63;101008.91;105786;1273;25274;-65
2022/09/06 07:35:56;;;;;;;8.40;1.30;;;;;;;15.04;63.41;101013.11;105710;1274;24313;-65
2022/09/06 07:38:26;;;;;;;;;;;;;;;15.04;64.00;101017.45;105859;1274;24335;-64
2022/09/06 07:41:00;;;;;;;7.50;1.20;;;;;;;15.05;64.28;101017.31;105722;1274;24420;-65
2022/09/06 07:43:32;;;;;;;5.50;1.00;;;;;;;15.05;64.37;101012.81;105647;1275;25398;-64
2022/09/06 07:46:06;;;;;;;6.30;0.90;;;;;;;15.06;64.54;101015.89;105649;1274;22549;-65
2022/09/06 07:48:40;;;;;;;8.00;1.20;;;;;;;15.07;64.72;101019.59;105728;1274;23073;-65
2022/09/06 07:51:15;;;;;;;8.50;1.00;;;;;;;15.08;64.79;101019.61;105795;1274;22561;-63
2022/09/06 07:53:50;;;;;;;7.10;0.90;;;;;;;15.09;64.57;101019.25;105706;1274;22572;-64
2022/09/06 07:56:23;;;;;;;6.80;1.10;;;;;;;15.09;64.64;101020.04;105656;1273;24240;-64
2022/09/06 07:58:56;;;;;;;5.00;0.90;;;;;;;15.10;64.91;101022.30;105682;1273;22531;-65
2022/09/06 08:01:33;;;;;;;9.00;1.00;;;;;;;15.12;64.73;101023.14;105793;1274;22527;-65
2022/09/06 08:04:07;;;;;;;6.30;1.10;;;;;;;15.14;64.67;101027.92;105925;1274;22573;-64
2022/09/06 08:06:42;;;;;;;7.10;1.00;;;;;;;15.17;64.71;101031.91;105753;1273;25484;-65
2022/09/06 08:09:13;;;;;;;5.30;0.90;;;;;;;15.18;64.58;101031.71;105692;1273;24410;-65
2022/09/06 08:11:45;;;;;;;7.10;1.00;;;;;;;15.22;64.59;101027.71;105748;1274;24237;-64
2022/09/06 08:14:17;;;;;;;11.90;1.50;;;;;;;15.26;64.78;101026.19;105599;1274;22620;-65
2022/09/06 08:16:49;;;;;;;13.30;1.20;;;;;;;15.31;65.15;101025.38;105674;1273;22523;-64
2022/09/06 08:19:20;;;;;;;9.90;1.30;;;;;;;15.37;64.87;101018.75;105758;1273;24237;-64
2022/09/06 08:21:56;;;;;;;9.10;1.20;;;;;;;15.43;64.68;101016.42;105719;1272;22690;-65
2022/09/06 08:24:28;;;;;;;5.60;1.00;;;;;;;15.49;64.38;101015.28;105725;1273;22531;-65
2022/09/06 08:27:01;;;;;;;6.60;0.90;;;;;;;15.54;64.15;101012.42;105784;1273;22558;-65
2022/09/06 08:29:32;;;;;;;6.10;1.20;;;;;;;15.60;63.87;101009.73;105994;1273;22600;-64
2022/09/06 08:32:04;;;;;;;4.70;1.00;;;;;;;15.67;63.77;101007.70;105677;1273;23095;-64
2022/09/06 08:34:36;;;;;;;5.90;1.10;;;;;;;15.73;63.83;100997.69;105829;1273;22535;-65
2022/09/06 08:37:09;;;;;;;9.00;1.20;;;;;;;15.79;63.67;100996.52;105711;1273;25539;-67
2022/09/06 08:39:41;;;;;;;9.00;1.00;;;;;;;15.82;62.91;100989.95;105691;1273;22577;-65
2022/09/06 08:42:13;;;;;;;6.20;1.00;;;;;;;15.85;62.86;100992.37;105541;1273;25365;-64
2022/09/06 08:44:50;;;;;;;4.20;0.90;;;;;;;15.88;62.74;100987.09;105592;1274;25320;-65
2022/09/06 08:47:22;;;;;;;9.80;1.30;;;;;;;15.90;62.73;100985.72;105672;1273;25338;-65
2022/09/06 08:49:56;;;;;;;8.50;1.20;;;;;;;15.94;62.71;100986.31;105715;1273;24278;-64
2022/09/06 08:52:57;;;;;;;6.50;1.20;;;;;;;15.97;62.61;100982.86;105766;1273;22630;-65
2022/09/06 08:55:35;;;;;;;6.40;1.00;;;;;;;16.01;62.72;100977.95;105487;1277;26780;-64
2022/09/06 08:58:34;;;;;;;8.60;1.10;;;;;;;16.06;62.76;100980.79;105472;1277;25740;-65
2022/09/06 09:01:14;;;;;;;7.30;1.10;;;;;;;16.11;62.37;100987.11;105494;1277;22571;-65
2022/09/06 09:03:46;;;;;;;5.60;0.90;;;;;;;16.13;62.23;100991.44;105450;1278;22571;-64
2022/09/06 09:06:18;;;;;;;9.50;1.30;;;;;;;16.14;62.16;100987.01;105409;1277;22676;-65
2022/09/06 09:09:00;;;;;;;7.00;1.10;;;;;;;16.17;62.25;100982.36;105532;1277;22585;-65
2022/09/06 09:11:34;;;;;;;8.60;1.10;;;;;;;16.21;62.22;100977.32;105576;1277;25330;-64
2022/09/06 09:14:12;;;;;;;5.40;1.10;;;;;;;16.24;62.17;100979.09;105413;1277;22679;-65
2022/09/06 09:16:45;;;;;;;5.10;1.30;;;;;;;16.26;62.14;100979.27;105435;1277;22570;-65
2022/09/06 09:19:17;;;;;;;4.90;1.10;;;;;;;16.29;61.97;100978.36;105429;1278;22538;-65
2022/09/06 09:21:50;;;;;;;7.70;1.40;;;;;;;16.33;61.87;100980.23;105614;1277;22523;-64
2022/09/06 09:24:23;;;;;;;7.90;1.20;;;;;;;16.38;61.53;100976.69;105512;1277;24266;-65
2022/09/06 09:26:57;;;;;;;8.60;1.00;;;;;;;16.44;61.38;100976.11;105482;1277;24277;-65
2022/09/06 09:29:30;;;;;;;12.50;1.30;;;;;;;16.52;61.39;100978.20;105442;1277;24264;-65
2022/09/06 09:32:02;;;;;;;10.30;1.20;;;;;;;16.61;61.43;100973.42;105884;1277;25584;-64
2022/09/06 09:34:36;;;;;;;10.80;1.30;;;;;;;16.70;61.33;100974.30;105750;1274;22600;-65
2022/09/06 09:37:17;;;;;;;7.90;1.10;;;;;;;16.75;60.96;100970.90;105845;1273;24695;-65
2022/09/06 09:39:51;;;;;;;9.70;1.20;;;;;;;16.81;60.91;100966.73;105641;1274;22570;-65
2022/09/06 09:42:31;;;;;;;7.10;1.10;;;;;;;16.91;61.05;100967.46;105772;1273;23986;-66
2022/09/06 09:45:06;;;;;;;10.10;1.40;;;;;;;17.04;61.14;100968.63;105775;1273;23961;-66
2022/09/06 09:47:38;;;;;;;13.30;1.50;;;;;;;17.13;60.73;100967.65;105720;1273;22568;-65
2022/09/06 09:50:26;;;;;;;8.20;1.20;;;;;;;17.24;60.63;100963.38;105872;1273;22536;-65
2022/09/06 09:53:07;;;;;;;8.20;1.30;;;;;;;17.34;60.22;100966.95;105779;1273;25484;-66
2022/09/06 09:55:40;;;;;;;9.90;1.20;;;;;;;17.43;60.57;100966.96;105711;1273;22531;-66
2022/09/06 09:58:26;;;;;;;6.40;1.90;;;;;;;17.53;60.61;100962.30;105668;1273;22569;-66
2022/09/06 10:01:16;;;;;;;5.90;1.10;;;;;;;17.64;59.95;100966.52;105886;1273;22553;-65
2022/09/06 10:03:48;;;;;;;5.90;1.10;;;;;;;17.72;59.70;100969.27;105584;1274;25510;-66
2022/09/06 10:06:27;;;;;;;10.80;2.20;;;;;;;17.81;59.83;100970.91;105814;1274;25333;-65
2022/09/06 10:08:59;;;;;;;8.90;1.50;;;;;;;17.91;60.21;100967.50;105653;1274;22573;-65
2022/09/06 10:11:53;;;;;;;6.40;1.00;;;;;;;18.01;59.53;100963.80;105865;1273;22696;-65
2022/09/06 10:14:32;;;;;;;8.70;1.30;;;;;;;18.12;58.88;100955.06;105866;1273;24260;-66
2022/09/06 10:17:05;;;;;;;9.30;1.50;;;;;;;18.26;58.89;100944.63;105809;1273;24419;-64
2022/09/06 10:19:43;;;;;;;5.00;0.90;;;;;;;18.40;58.56;100942.97;105677;1273;22557;-65
2022/09/06 10:22:31;;;;;;;6.40;1.10;;;;;;;18.57;58.13;100946.97;105794;1273;25662;-66
2022/09/06 10:25:29;;;;;;;7.20;1.20;;;;;;;18.71;57.55;100943.52;105772;1273;25372;-66
2022/09/06 10:28:21;;;;;;;8.00;1.20;;;;;;;18.87;57.77;100945.64;105654;1273;22573;-66
2022/09/06 10:31:07;;;;;;;6.00;1.00;;;;;;;19.05;57.63;100941.03;105695;1273;22545;-66
2022/09/06 10:33:50;;;;;;;7.10;1.20;;;;;;;19.20;57.18;100941.73;105652;1273;24391;-66
2022/09/06 10:36:27;;;;;;;5.50;1.10;;;;;;;19.31;55.85;100938.80;105845;1273;22553;-66
2022/09/06 10:39:04;;;;;;;5.00;0.90;;;;;;;19.37;56.02;100933.86;105879;1273;22573;-65
2022/09/06 10:41:54;;;;;;;7.10;1.10;;;;;;;19.46;55.88;100930.55;105844;1273;22625;-66
2022/09/06 10:44:39;;;;;;;4.80;1.00;;;;;;;19.55;55.71;100924.73;105786;1273;25434;-65
2022/09/06 10:47:14;;;;;;;6.30;0.90;;;;;;;19.62;55.58;100912.06;105740;1273;24268;-66
2022/09/06 10:49:50;;;;;;;6.40;1.00;;;;;;;19.71;55.53;100914.02;105755;1273;22719;-65
2022/09/06 10:52:32;;;;;;;10.90;1.40;;;;;;;19.84;55.22;100910.25;105724;1273;22642;-65
2022/09/06 10:55:06;;;;;;;8.20;1.00;;;;;;;19.95;55.04;100907.27;105836;1273;24423;-67
2022/09/06 10:57:44;;;;;;;4.30;1.10;;;;;;;20.03;54.94;100901.06;105780;1273;22549;-66
2022/09/06 11:00:17;;;;;;;7.70;1.10;;;;;;;20.10;54.29;100899.98;105776;1273;24255;-65
2022/09/06 11:02:59;;;;;;;6.30;1.00;;;;;;;20.20;54.36;100899.42;105601;1274;25265;-66
2022/09/06 11:05:35;;;;;;;3.90;0.70;;;;;;;20.25;53.41;100890.27;105651;1273;22697;-66
2022/09/06 11:08:12;;;;;;;5.50;0.70;;;;;;;20.29;53.21;100880.48;105896;1273;25509;-66
2022/09/06 11:10:48;;;;;;;4.70;0.90;;;;;;;20.30;52.87;100879.52;105874;1273;25379;-66
2022/09/06 11:13:22;;;;;;;6.10;1.10;;;;;;;20.34;52.53;100868.98;105815;1273;22644;-66
2022/09/06 11:15:59;;;;;;;3.60;0.80;;;;;;;20.36;52.01;100865.98;105618;1273;22630;-66
2022/09/06 11:18:37;;;;;;;3.90;0.80;;;;;;;20.35;51.42;100864.55;105963;1273;25365;-68
2022/09/06 11:21:38;;;;;;;4.60;0.80;;;;;;;20.33;51.31;100859.87;105790;1273;24326;-66
2022/09/06 11:24:14;;;;;;;5.10;1.30;;;;;;;20.38;51.41;100858.27;105394;1279;25348;-67
2022/09/06 11:27:04;;;;;;;4.30;0.70;;;;;;;20.47;51.44;100858.06;105554;1281;22575;-67
2022/09/06 11:29:40;;;;;;;5.30;0.90;;;;;;;20.52;50.65;100853.94;105520;1279;22660;-66
2022/09/06 11:32:34;;;;;;;7.80;1.00;;;;;;;20.52;50.33;100850.84;105404;1279;24318;-67
2022/09/06 11:35:10;;;;;;;4.80;0.90;;;;;;;20.53;50.69;100845.57;105564;1279;22605;-66
2022/09/06 11:37:48;;;;;;;7.20;1.00;;;;;;;20.57;50.71;100852.01;105479;1279;22541;-67
2022/09/06 11:40:24;;;;;;;3.40;0.80;;;;;;;20.63;50.31;100855.20;105443;1279;24910;-67
2022/09/06 11:43:42;;;;;;;4.50;0.90;;;;;;;20.69;50.38;100854.27;105490;1281;24270;-67
2022/09/06 11:46:51;;;;;;;5.80;0.80;;;;;;;20.81;50.36;100852.11;105197;1284;22491;-66
2022/09/06 11:49:38;;;;;;;4.60;0.80;;;;;;;20.89;49.72;100853.92;104812;1284;25658;-66
2022/09/06 11:52:46;;;;;;;3.50;0.90;;;;;;;20.97;49.83;100851.34;105053;1283;26975;-69
2022/09/06 11:55:19;;;;;;;6.20;1.00;;;;;;;21.04;49.75;100850.25;104677;1284;24477;-67